South Haven, Minnesota
Current Conditions -  °F | °C
As of 10:15 PM on Saturday 20 Dec 2014 (Local Time) from KMGG Reporting Station
Overcast Overcast  
Wind Chill: 23°   Ceiling: 1100
Heat Index: 31°   Visibility: 10mi
Dew Point: 29°   Wind: 9mph
Humidity: 91%   Direction: 150°SSE
Pressure: 30.05"   Gusts: NA
Location:  45.29°N, 94.21°W
Report Text: KMGG 210415Z AUTO 15008KT 10SM OVC011 00/M02 A3005 RMK AO2 T10031016
Loading
Personal Weather Stations






























Interactive Weather Map New forecast layout! Learn more

10-Day Weather Forecast

Advertisements
Track Severe Weather on mobile